createdAt,value
2023-01-31T00:00:12.904Z,9.30
2023-01-31T00:02:42.740Z,9.20
2023-01-31T00:05:10.749Z,9.20
2023-01-31T00:07:38.813Z,9.80
2023-01-31T00:10:07.077Z,9.80
2023-01-31T00:14:20.670Z,10.90
2023-01-31T00:16:48.660Z,10.40
2023-01-31T00:19:16.613Z,9.90
2023-01-31T00:21:47.507Z,10.20
2023-01-31T00:24:15.914Z,9.90
2023-01-31T00:26:44.043Z,9.80
2023-01-31T00:29:12.057Z,9.20
2023-01-31T00:31:40.408Z,10.90
2023-01-31T00:34:08.711Z,9.80
2023-01-31T00:36:37.995Z,10.50
2023-01-31T00:39:07.080Z,9.00
2023-01-31T00:41:37.242Z,8.70
2023-01-31T00:44:08.088Z,9.30
2023-01-31T00:46:37.838Z,10.20
2023-01-31T00:49:06.179Z,9.10
2023-01-31T00:51:35.351Z,10.10
2023-01-31T00:54:03.976Z,9.20
2023-01-31T00:56:32.158Z,8.80
2023-01-31T00:59:02.053Z,10.30
2023-01-31T01:01:30.766Z,9.40
2023-01-31T01:03:58.754Z,9.10
2023-01-31T01:06:29.943Z,11.10
2023-01-31T01:08:59.975Z,10.00
2023-01-31T01:11:32.588Z,9.30
2023-01-31T01:14:00.671Z,9.60
2023-01-31T01:16:32.971Z,9.20
2023-01-31T01:19:03.093Z,9.00
2023-01-31T01:21:33.419Z,9.00
2023-01-31T01:24:02.064Z,9.00
2023-01-31T01:26:31.914Z,10.20
2023-01-31T01:29:01.067Z,10.00
2023-01-31T01:31:31.039Z,9.70
2023-01-31T01:34:00.904Z,9.90
2023-01-31T01:36:29.369Z,9.00
2023-01-31T01:38:57.397Z,9.50
2023-01-31T01:41:25.353Z,9.70
2023-01-31T01:43:55.846Z,9.40
2023-01-31T01:46:28.081Z,10.10
2023-01-31T01:49:02.994Z,9.70
2023-01-31T01:54:01.565Z,10.10
2023-01-31T01:56:32.650Z,11.20
2023-01-31T01:59:09.033Z,9.20
2023-01-31T02:01:38.257Z,10.90
2023-01-31T02:04:12.984Z,10.30
2023-01-31T02:06:41.262Z,9.20
2023-01-31T02:09:09.474Z,9.80
2023-01-31T02:11:38.472Z,9.40
2023-01-31T02:14:08.807Z,10.90
2023-01-31T02:16:37.208Z,11.10
2023-01-31T02:19:08.553Z,11.00
2023-01-31T02:22:01.865Z,12.00
2023-01-31T02:24:51.465Z,11.20
2023-01-31T02:27:26.767Z,11.70
2023-01-31T02:30:25.228Z,10.10
2023-01-31T02:32:59.080Z,10.10
2023-01-31T02:35:48.847Z,10.60
2023-01-31T02:38:39.750Z,11.50
2023-01-31T02:41:20.311Z,10.60
2023-01-31T02:44:20.119Z,11.40
2023-01-31T02:47:15.067Z,10.20
2023-01-31T02:49:46.970Z,11.10
2023-01-31T02:52:35.697Z,10.50
2023-01-31T02:55:36.457Z,9.80
2023-01-31T02:58:07.199Z,10.50
2023-01-31T03:00:36.888Z,10.50
2023-01-31T03:03:06.974Z,11.30
2023-01-31T03:05:37.440Z,10.30
2023-01-31T03:08:05.491Z,9.10
2023-01-31T03:10:54.288Z,9.90
2023-01-31T03:13:36.649Z,9.80
2023-01-31T03:16:45.393Z,9.50
2023-01-31T03:19:32.920Z,8.50
2023-01-31T03:22:12.036Z,9.90
2023-01-31T03:24:48.172Z,8.90
2023-01-31T03:27:16.814Z,8.90
2023-01-31T03:29:45.961Z,9.40
2023-01-31T03:32:24.935Z,8.00
2023-01-31T03:34:53.695Z,9.80
2023-01-31T03:37:31.804Z,9.10
2023-01-31T03:40:26.132Z,8.40
2023-01-31T03:42:58.965Z,9.10
2023-01-31T03:45:32.594Z,8.40
2023-01-31T03:48:03.550Z,8.90
2023-01-31T03:50:38.718Z,9.20
2023-01-31T03:53:10.979Z,9.90
2023-01-31T03:55:57.177Z,9.70
2023-01-31T03:58:28.608Z,9.50
2023-01-31T04:01:01.868Z,9.70
2023-01-31T04:03:42.074Z,7.90
2023-01-31T04:06:11.269Z,8.60
2023-01-31T04:08:39.688Z,8.40
2023-01-31T04:11:11.688Z,9.00
2023-01-31T04:13:39.932Z,9.30
2023-01-31T04:16:08.850Z,9.30
2023-01-31T04:18:38.786Z,8.90
2023-01-31T04:21:07.265Z,8.30
2023-01-31T04:23:35.921Z,8.50
2023-01-31T04:26:03.850Z,9.20
2023-01-31T04:28:33.175Z,7.60
2023-01-31T04:31:01.193Z,7.50
2023-01-31T04:33:30.387Z,8.40
2023-01-31T04:35:58.744Z,9.60
2023-01-31T04:38:26.736Z,8.80
2023-01-31T04:40:54.611Z,8.90
2023-01-31T04:43:22.610Z,8.50
2023-01-31T04:45:50.840Z,8.60
2023-01-31T04:48:18.946Z,7.80
2023-01-31T04:50:46.863Z,8.90
2023-01-31T04:53:15.691Z,8.80
2023-01-31T04:55:46.861Z,9.10
2023-01-31T04:58:15.074Z,8.50
2023-01-31T05:00:45.083Z,8.70
2023-01-31T05:03:13.532Z,8.60
2023-01-31T05:05:41.609Z,9.80
2023-01-31T05:08:09.758Z,8.70
2023-01-31T05:10:40.115Z,8.80
2023-01-31T05:13:08.088Z,8.00
2023-01-31T05:15:38.421Z,9.00
2023-01-31T05:18:06.733Z,9.40
2023-01-31T05:20:39.691Z,9.00
2023-01-31T05:23:07.659Z,10.40
2023-01-31T05:25:37.261Z,11.60
2023-01-31T05:28:05.268Z,10.30
2023-01-31T05:30:33.658Z,9.40
2023-01-31T05:33:01.911Z,10.00
2023-01-31T05:37:08.738Z,9.10
2023-01-31T05:39:37.324Z,9.00
2023-01-31T05:42:05.661Z,9.00
2023-01-31T05:44:33.683Z,8.70
2023-01-31T05:47:02.543Z,9.30
2023-01-31T05:49:33.628Z,9.60
2023-01-31T05:52:02.108Z,10.10
2023-01-31T05:54:30.384Z,9.30
2023-01-31T05:57:01.696Z,9.70
2023-01-31T05:59:31.356Z,10.90
2023-01-31T06:01:59.796Z,10.40
2023-01-31T06:04:34.047Z,10.50
2023-01-31T06:07:01.973Z,9.60
2023-01-31T06:09:32.056Z,10.10
2023-01-31T06:12:00.901Z,10.60
2023-01-31T06:14:30.879Z,10.70
2023-01-31T06:16:59.139Z,10.90
2023-01-31T06:19:27.315Z,11.10
2023-01-31T06:21:55.364Z,11.30
2023-01-31T06:24:23.490Z,12.20
2023-01-31T06:26:51.426Z,11.40
2023-01-31T06:29:19.576Z,10.20
2023-01-31T06:31:47.833Z,11.00
2023-01-31T06:34:15.880Z,9.00
2023-01-31T06:36:43.971Z,11.30
2023-01-31T06:39:15.052Z,10.20
2023-01-31T06:41:42.853Z,10.90
2023-01-31T06:44:12.935Z,10.80
2023-01-31T06:46:40.857Z,9.40
2023-01-31T06:49:08.705Z,10.40
2023-01-31T06:51:37.134Z,10.60
2023-01-31T06:54:05.212Z,8.70
2023-01-31T06:56:33.342Z,9.70
2023-01-31T06:59:01.262Z,9.90
2023-01-31T07:01:30.246Z,12.10
2023-01-31T07:03:58.321Z,10.50
2023-01-31T07:06:26.288Z,10.40
2023-01-31T07:08:54.239Z,11.70
2023-01-31T07:11:22.400Z,10.90
2023-01-31T07:13:50.553Z,10.00
2023-01-31T07:16:19.893Z,10.50
2023-01-31T07:18:48.006Z,10.40
2023-01-31T07:21:15.937Z,9.00
2023-01-31T07:23:45.578Z,10.50
2023-01-31T07:26:17.603Z,11.60
2023-01-31T07:28:45.597Z,13.80
2023-01-31T07:31:14.129Z,13.00
2023-01-31T07:33:42.329Z,13.00
2023-01-31T07:36:13.700Z,15.70
2023-01-31T07:38:41.636Z,13.60
2023-01-31T07:41:10.030Z,12.70
2023-01-31T07:43:38.981Z,14.10
2023-01-31T07:46:10.406Z,12.00
2023-01-31T07:48:38.932Z,12.40
2023-01-31T07:51:07.438Z,12.10
2023-01-31T07:53:40.034Z,11.70
2023-01-31T07:56:15.723Z,14.20
2023-01-31T07:58:44.702Z,13.40
2023-01-31T08:01:41.588Z,12.40
2023-01-31T08:04:21.490Z,12.30
2023-01-31T08:06:53.009Z,11.90
2023-01-31T08:09:21.142Z,13.00
2023-01-31T08:12:33.745Z,12.90
2023-01-31T08:15:02.563Z,13.10
2023-01-31T08:17:31.985Z,13.90
2023-01-31T08:20:00.121Z,15.60
2023-01-31T08:22:27.933Z,15.90
2023-01-31T08:24:55.809Z,14.30
2023-01-31T08:27:23.839Z,14.40
2023-01-31T08:29:51.693Z,15.20
2023-01-31T08:32:19.866Z,13.90
2023-01-31T08:34:47.953Z,12.50
2023-01-31T08:37:17.417Z,14.60
2023-01-31T08:39:47.494Z,14.30
2023-01-31T08:42:15.468Z,13.40
2023-01-31T08:44:44.200Z,15.30
2023-01-31T08:47:14.299Z,14.80
2023-01-31T08:49:42.669Z,14.00
2023-01-31T08:52:10.944Z,14.10
2023-01-31T08:54:38.783Z,13.50
2023-01-31T08:57:07.040Z,13.90
2023-01-31T08:59:35.041Z,13.20
2023-01-31T09:02:02.954Z,13.70
2023-01-31T09:04:31.283Z,13.70
2023-01-31T09:06:59.272Z,13.40
2023-01-31T09:09:29.759Z,13.30
2023-01-31T09:11:58.735Z,12.70
2023-01-31T09:14:35.292Z,13.20
2023-01-31T09:17:03.705Z,13.00
2023-01-31T09:19:32.384Z,13.00
2023-01-31T09:22:00.457Z,13.80
2023-01-31T09:24:28.725Z,13.70
2023-01-31T09:26:56.842Z,13.70
2023-01-31T09:29:25.597Z,14.30
2023-01-31T09:31:53.913Z,13.00
2023-01-31T09:34:22.376Z,12.60
2023-01-31T09:36:50.539Z,13.80
2023-01-31T09:39:18.673Z,13.80
2023-01-31T09:41:54.795Z,13.70
2023-01-31T09:44:28.583Z,14.90
2023-01-31T09:47:29.951Z,14.30
2023-01-31T09:50:05.274Z,13.30
2023-01-31T09:52:33.518Z,12.50
2023-01-31T09:55:01.515Z,13.20
2023-01-31T09:57:42.587Z,12.00
2023-01-31T10:00:22.525Z,13.10
2023-01-31T10:03:01.300Z,14.40
2023-01-31T10:05:53.001Z,13.90
2023-01-31T10:08:41.333Z,14.30
2023-01-31T10:11:16.494Z,16.90
2023-01-31T10:14:27.225Z,15.00
2023-01-31T10:17:17.915Z,13.60
2023-01-31T10:19:51.520Z,14.10
2023-01-31T10:22:44.307Z,13.80
2023-01-31T10:25:40.647Z,14.20
2023-01-31T10:28:30.345Z,12.70
2023-01-31T10:31:01.276Z,14.00
2023-01-31T10:33:39.909Z,13.70
2023-01-31T10:36:29.117Z,14.10
2023-01-31T10:39:08.283Z,13.20
2023-01-31T10:41:46.242Z,12.60
2023-01-31T10:44:24.327Z,13.00
2023-01-31T10:46:55.344Z,12.80
2023-01-31T10:49:23.533Z,12.70
2023-01-31T10:52:14.676Z,13.00
2023-01-31T10:54:52.570Z,15.30
2023-01-31T10:57:20.382Z,14.90
2023-01-31T10:59:48.690Z,14.50
2023-01-31T11:02:24.143Z,13.80
2023-01-31T11:04:54.402Z,13.40
2023-01-31T11:07:22.496Z,13.50
2023-01-31T11:09:53.435Z,15.90
2023-01-31T11:12:22.220Z,14.60
2023-01-31T11:15:06.982Z,14.40
2023-01-31T11:17:36.260Z,14.70
2023-01-31T11:20:06.736Z,15.80
2023-01-31T11:22:35.697Z,16.10
2023-01-31T11:25:06.503Z,14.50
2023-01-31T11:27:39.727Z,12.60
2023-01-31T11:30:17.934Z,14.80
2023-01-31T11:32:45.906Z,12.50
2023-01-31T11:35:13.827Z,13.30
2023-01-31T11:37:59.429Z,13.60
2023-01-31T11:40:38.405Z,15.00
2023-01-31T11:43:21.027Z,11.90
2023-01-31T11:45:59.772Z,13.70
2023-01-31T11:48:44.491Z,12.80
2023-01-31T11:51:22.506Z,14.20
2023-01-31T11:54:59.337Z,14.70
2023-01-31T11:57:31.156Z,14.00
2023-01-31T12:00:00.215Z,14.00
2023-01-31T12:02:31.914Z,15.80
2023-01-31T12:05:00.808Z,12.90
2023-01-31T12:07:32.573Z,13.60
2023-01-31T12:10:00.463Z,13.60
2023-01-31T12:12:34.695Z,14.30
2023-01-31T12:15:05.957Z,14.40
2023-01-31T12:17:40.497Z,16.10
2023-01-31T12:20:27.652Z,15.70
2023-01-31T12:23:20.852Z,13.90
2023-01-31T12:26:17.727Z,15.90
2023-01-31T12:29:21.139Z,16.50
2023-01-31T12:32:14.215Z,15.50
2023-01-31T12:35:00.789Z,15.00
2023-01-31T12:38:01.290Z,14.10
2023-01-31T12:40:32.546Z,14.60
2023-01-31T12:43:02.957Z,13.80
2023-01-31T12:45:53.575Z,15.80
2023-01-31T12:48:32.288Z,14.50
2023-01-31T12:51:22.689Z,14.60
2023-01-31T12:53:59.598Z,12.80
2023-01-31T12:57:06.374Z,14.80
2023-01-31T13:00:03.514Z,14.40
2023-01-31T13:03:04.816Z,15.20
2023-01-31T13:05:39.559Z,14.50
2023-01-31T13:08:28.380Z,16.60
2023-01-31T13:11:03.503Z,16.40
2023-01-31T13:13:35.793Z,16.90
2023-01-31T13:16:12.755Z,15.60
2023-01-31T13:18:40.718Z,16.00
2023-01-31T13:21:09.716Z,16.30
2023-01-31T13:23:42.437Z,18.50
2023-01-31T13:26:21.150Z,19.80
2023-01-31T13:28:57.608Z,19.90
2023-01-31T13:31:41.611Z,21.90
2023-01-31T13:34:18.523Z,22.40
2023-01-31T13:36:49.843Z,24.00
2023-01-31T13:39:45.218Z,24.50
2023-01-31T13:42:16.205Z,20.40
2023-01-31T13:44:44.658Z,19.70
2023-01-31T13:47:33.419Z,18.90
2023-01-31T13:50:02.933Z,15.90
2023-01-31T13:52:34.207Z,18.30
2023-01-31T13:55:08.095Z,16.30
2023-01-31T13:57:47.578Z,16.90
2023-01-31T14:00:36.853Z,16.50
2023-01-31T14:03:06.240Z,15.00
2023-01-31T14:05:43.442Z,15.90
2023-01-31T14:08:27.039Z,14.40
2023-01-31T14:11:00.299Z,14.20
2023-01-31T14:13:38.037Z,14.80
2023-01-31T14:16:32.195Z,13.80
2023-01-31T14:19:00.458Z,13.40
2023-01-31T14:21:32.129Z,16.10
2023-01-31T14:24:01.641Z,15.30
2023-01-31T14:26:42.047Z,18.00
2023-01-31T14:29:26.224Z,17.90
2023-01-31T14:31:55.265Z,18.80
2023-01-31T14:34:25.664Z,18.60
2023-01-31T14:37:12.755Z,21.10
2023-01-31T14:40:00.127Z,23.70
2023-01-31T14:42:44.322Z,24.70
2023-01-31T14:45:49.792Z,24.80
2023-01-31T14:48:43.008Z,23.90
2023-01-31T14:51:39.013Z,22.20
2023-01-31T14:54:12.916Z,19.80
2023-01-31T14:56:59.043Z,20.20
2023-01-31T14:59:28.718Z,17.90
2023-01-31T15:01:56.859Z,18.40
2023-01-31T15:04:25.800Z,17.90
2023-01-31T15:06:54.724Z,16.20
2023-01-31T15:09:24.722Z,16.30
2023-01-31T15:11:55.400Z,17.10
2023-01-31T15:14:45.170Z,17.60
2023-01-31T15:17:33.667Z,19.20
2023-01-31T15:20:24.257Z,20.80
2023-01-31T15:22:52.136Z,22.70
2023-01-31T15:25:36.057Z,27.60
2023-01-31T15:28:06.097Z,25.90
2023-01-31T15:30:35.523Z,25.40
2023-01-31T15:33:16.703Z,23.90
2023-01-31T15:35:59.427Z,21.50
2023-01-31T15:38:33.575Z,18.80
2023-01-31T15:41:11.239Z,18.90
2023-01-31T15:43:39.880Z,19.80
2023-01-31T15:46:28.200Z,16.10
2023-01-31T15:48:57.099Z,15.70
2023-01-31T15:51:26.194Z,15.80
2023-01-31T15:54:02.597Z,15.70
2023-01-31T15:56:30.907Z,14.70
2023-01-31T15:59:14.016Z,13.50
2023-01-31T16:01:49.738Z,14.50
2023-01-31T16:04:17.635Z,13.00
2023-01-31T16:06:49.996Z,13.70
2023-01-31T16:09:29.897Z,12.60
2023-01-31T16:13:12.504Z,12.80
2023-01-31T16:15:41.405Z,12.90
2023-01-31T16:18:10.500Z,13.50
2023-01-31T16:20:46.635Z,13.70
2023-01-31T16:23:25.974Z,12.30
2023-01-31T16:25:55.745Z,13.20
2023-01-31T16:28:24.232Z,12.80
2023-01-31T16:30:52.518Z,11.20
2023-01-31T16:33:23.090Z,11.60
2023-01-31T16:36:12.912Z,10.90
2023-01-31T16:38:43.422Z,12.20
2023-01-31T16:41:12.997Z,11.80
2023-01-31T16:43:42.233Z,11.70
2023-01-31T16:46:22.165Z,11.60
2023-01-31T16:49:29.209Z,12.40
2023-01-31T16:51:58.514Z,11.10
2023-01-31T16:54:30.993Z,11.60
2023-01-31T16:57:01.980Z,11.20
2023-01-31T16:59:37.412Z,11.10
2023-01-31T17:02:08.118Z,12.00
2023-01-31T17:04:39.835Z,10.80
2023-01-31T17:07:30.242Z,10.10
2023-01-31T17:09:59.943Z,10.20
2023-01-31T17:12:34.912Z,9.20
2023-01-31T17:15:18.769Z,9.50
2023-01-31T17:17:50.938Z,10.10
2023-01-31T17:20:20.439Z,10.10
2023-01-31T17:22:56.992Z,8.90
2023-01-31T17:25:34.899Z,8.50
2023-01-31T17:28:03.551Z,8.70
2023-01-31T17:30:31.553Z,8.50
2023-01-31T17:33:00.174Z,6.50
2023-01-31T17:35:34.623Z,7.70
2023-01-31T17:38:02.708Z,6.90
2023-01-31T17:40:30.729Z,8.30
2023-01-31T17:43:03.953Z,9.00
2023-01-31T17:45:32.620Z,8.40
2023-01-31T17:48:00.500Z,8.20
2023-01-31T17:50:28.964Z,9.40
2023-01-31T17:52:57.311Z,9.60
2023-01-31T17:55:25.505Z,9.10
2023-01-31T17:57:56.937Z,8.00
2023-01-31T18:00:24.776Z,8.20
2023-01-31T18:02:54.970Z,8.00
2023-01-31T18:05:38.393Z,8.60
2023-01-31T18:08:08.290Z,8.80
2023-01-31T18:10:36.390Z,7.70
2023-01-31T18:13:04.351Z,9.30
2023-01-31T18:15:32.716Z,9.10
2023-01-31T18:18:08.628Z,10.50
2023-01-31T18:20:38.864Z,10.10
2023-01-31T18:23:06.736Z,9.90
2023-01-31T18:25:34.871Z,10.90
2023-01-31T18:28:03.808Z,9.20
2023-01-31T18:30:32.931Z,9.80
2023-01-31T18:33:00.883Z,9.40
2023-01-31T18:35:29.375Z,10.80
2023-01-31T18:37:57.275Z,9.60
2023-01-31T18:40:25.210Z,8.80
2023-01-31T18:42:53.578Z,9.00
2023-01-31T18:45:21.644Z,8.10
2023-01-31T18:47:51.628Z,9.20
2023-01-31T18:50:19.496Z,9.20
2023-01-31T18:52:49.140Z,8.60
2023-01-31T18:55:17.200Z,8.50
2023-01-31T18:57:45.306Z,8.70
2023-01-31T19:00:13.858Z,9.20
2023-01-31T19:02:41.945Z,9.40
2023-01-31T19:05:09.959Z,9.70
2023-01-31T19:07:37.841Z,10.90
2023-01-31T19:10:06.479Z,10.90
2023-01-31T19:12:39.072Z,11.60
2023-01-31T19:15:08.353Z,12.20
2023-01-31T19:17:36.545Z,10.70
2023-01-31T19:20:05.215Z,12.20
2023-01-31T19:22:33.391Z,10.80
2023-01-31T19:25:05.463Z,10.90
2023-01-31T19:27:33.696Z,9.70
2023-01-31T19:30:01.824Z,8.40
2023-01-31T19:32:31.147Z,8.70
2023-01-31T19:34:59.350Z,7.60
2023-01-31T19:37:28.752Z,8.60
2023-01-31T19:39:56.673Z,8.50
2023-01-31T19:45:21.117Z,8.70
2023-01-31T19:47:50.562Z,8.80
2023-01-31T19:50:19.380Z,8.20
2023-01-31T19:52:47.349Z,7.60
2023-01-31T19:55:15.430Z,7.20
2023-01-31T19:57:43.425Z,6.50
2023-01-31T20:00:12.216Z,6.70
2023-01-31T20:02:42.228Z,7.80
2023-01-31T20:05:10.811Z,7.40
2023-01-31T20:07:42.629Z,7.10
2023-01-31T20:10:11.840Z,6.30
2023-01-31T20:12:41.918Z,5.90
2023-01-31T20:15:11.000Z,6.00
2023-01-31T20:17:38.945Z,5.70
2023-01-31T20:20:08.695Z,6.00
2023-01-31T20:22:37.457Z,5.50
2023-01-31T20:25:06.150Z,4.10
2023-01-31T20:27:35.489Z,3.70
2023-01-31T20:30:04.021Z,3.90
2023-01-31T20:32:31.986Z,2.90
2023-01-31T20:35:01.040Z,2.30
2023-01-31T20:37:29.147Z,2.20
2023-01-31T20:39:57.452Z,2.00
2023-01-31T20:42:27.134Z,2.40
2023-01-31T20:44:55.105Z,1.80
2023-01-31T20:47:23.398Z,2.30
2023-01-31T20:49:51.304Z,2.50
2023-01-31T20:52:21.572Z,1.90
2023-01-31T20:54:50.675Z,1.90
2023-01-31T20:57:18.886Z,2.00
2023-01-31T20:59:46.815Z,2.10
2023-01-31T21:02:15.141Z,2.90
2023-01-31T21:04:43.034Z,2.90
2023-01-31T21:07:11.413Z,2.30
2023-01-31T21:09:39.400Z,2.40
2023-01-31T21:12:09.625Z,3.50
2023-01-31T21:14:38.172Z,3.60
2023-01-31T21:17:06.218Z,4.40
2023-01-31T21:19:36.454Z,4.60
2023-01-31T21:22:04.516Z,4.60
2023-01-31T21:24:32.898Z,3.30
2023-01-31T21:27:20.755Z,3.20
2023-01-31T21:29:48.659Z,3.40
2023-01-31T21:32:16.651Z,3.00
2023-01-31T21:34:44.543Z,2.60
2023-01-31T21:37:12.452Z,2.70
2023-01-31T21:39:40.337Z,1.50
2023-01-31T21:42:15.433Z,2.10
2023-01-31T21:44:44.180Z,2.10
2023-01-31T21:47:12.858Z,1.90
2023-01-31T21:49:40.987Z,2.60
2023-01-31T21:52:09.987Z,2.10
2023-01-31T21:54:37.954Z,1.60
2023-01-31T21:57:06.314Z,2.00
2023-01-31T21:59:34.193Z,2.30
2023-01-31T22:02:02.164Z,1.50
2023-01-31T22:04:30.302Z,1.70
2023-01-31T22:06:58.662Z,1.40
2023-01-31T22:09:27.579Z,1.70
2023-01-31T22:11:55.816Z,2.50
2023-01-31T22:14:23.792Z,2.20
2023-01-31T22:18:11.176Z,1.90
2023-01-31T22:20:39.311Z,2.30
2023-01-31T22:23:07.230Z,2.50
2023-01-31T22:25:38.313Z,3.00
2023-01-31T22:28:06.503Z,3.50
2023-01-31T22:30:34.833Z,3.30
2023-01-31T22:33:03.038Z,3.40
2023-01-31T22:35:34.260Z,2.90
2023-01-31T22:38:04.519Z,3.40
2023-01-31T22:40:32.395Z,3.50
2023-01-31T22:43:01.745Z,3.20
2023-01-31T22:45:29.938Z,3.30
2023-01-31T22:47:58.221Z,2.50
2023-01-31T22:50:26.508Z,2.20
2023-01-31T22:52:54.485Z,2.20
2023-01-31T22:55:22.335Z,2.80
2023-01-31T22:57:50.171Z,2.80
2023-01-31T23:00:19.651Z,2.30
2023-01-31T23:02:47.764Z,2.60
2023-01-31T23:05:15.895Z,2.20
2023-01-31T23:07:43.853Z,2.70
2023-01-31T23:10:11.797Z,2.90
2023-01-31T23:12:42.732Z,2.30
2023-01-31T23:15:12.004Z,2.20
2023-01-31T23:17:40.125Z,3.60
2023-01-31T23:20:10.653Z,3.20
2023-01-31T23:22:38.628Z,2.50
2023-01-31T23:25:07.878Z,3.20
2023-01-31T23:27:40.432Z,2.20
2023-01-31T23:30:09.447Z,2.00
2023-01-31T23:32:37.533Z,1.70
2023-01-31T23:35:06.107Z,2.00
2023-01-31T23:37:35.138Z,1.70
2023-01-31T23:40:04.294Z,2.00
2023-01-31T23:42:32.358Z,3.00
2023-01-31T23:45:00.405Z,2.20
2023-01-31T23:47:28.729Z,2.40
2023-01-31T23:49:56.658Z,3.00
2023-01-31T23:52:24.872Z,3.90
2023-01-31T23:54:52.866Z,3.70
2023-01-31T23:57:21.045Z,4.20
2023-01-31T23:59:49.108Z,3.70
